Time;durP1;ratioP1;P1;durP2;ratioP2;P2;SDS_P1;SDS_P2;PMS_P1;PMS_P2;Temp;Humidity;BMP_temperature;BMP_pressure;BME280_temperature;BME280_humidity;BME280_pressure;Samples;Min_cycle;Max_cycle;Signal;HPM_P1;HPM_P2
2023/08/08 00:02:17;;;;;;;7.32;3.33;;;;;;;;;;4993703;28;20042;-72
2023/08/08 00:04:43;;;;;;;6.15;2.80;;;;;;;;;;5009209;28;20115;-72
2023/08/08 00:07:10;;;;;;;9.68;3.15;;;;;;;;;;5011845;28;20102;-72
2023/08/08 00:09:37;;;;;;;8.15;3.00;;;;;;;;;;4989130;28;20068;-72
2023/08/08 00:12:03;;;;;;;7.38;3.10;;;;;;;;;;5009745;28;20042;-72
2023/08/08 00:14:30;;;;;;;8.00;3.20;;;;;;;;;;5015071;28;20507;-72
2023/08/08 00:16:56;;;;;;;8.70;3.08;;;;;;;;;;4998548;28;20045;-72
2023/08/08 00:19:22;;;;;;;4.03;2.55;;;;;;;;;;5013937;28;20408;-72
2023/08/08 00:21:48;;;;;;;4.47;2.40;;;;;;;;;;5011242;28;20045;-72
2023/08/08 00:24:14;;;;;;;12.93;3.35;;;;;;;;;;5015463;28;20095;-72
2023/08/08 00:26:40;;;;;;;11.95;3.10;;;;;;;;;;5013711;28;20403;-72
2023/08/08 00:29:06;;;;;;;5.45;2.67;;;;;;;;;;4996836;28;20489;-72
2023/08/08 00:31:32;;;;;;;7.55;2.70;;;;;;;;;;5014994;28;21240;-72
2023/08/08 00:33:58;;;;;;;6.55;3.10;;;;;;;;;;5016007;28;20038;-72
2023/08/08 00:36:24;;;;;;;7.72;2.78;;;;;;;;;;4992123;28;20049;-72
2023/08/08 00:38:50;;;;;;;6.95;3.20;;;;;;;;;;5001880;28;20034;-72
2023/08/08 00:41:16;;;;;;;6.22;2.90;;;;;;;;;;5019388;28;20155;-71
2023/08/08 00:43:43;;;;;;;8.15;2.90;;;;;;;;;;4996798;28;20094;-72
2023/08/08 00:46:09;;;;;;;10.30;3.25;;;;;;;;;;5010654;28;20550;-72
2023/08/08 00:48:35;;;;;;;8.05;3.47;;;;;;;;;;4993121;28;20121;-72
2023/08/08 00:51:01;;;;;;;7.13;2.92;;;;;;;;;;5014588;28;20400;-72
2023/08/08 00:53:31;;;;;;;7.63;2.95;;;;;;;;;;5015013;28;20389;-72
2023/08/08 00:55:58;;;;;;;6.93;2.78;;;;;;;;;;5014820;28;20050;-72
2023/08/08 00:58:24;;;;;;;4.03;2.60;;;;;;;;;;5013030;28;20141;-72
2023/08/08 01:00:54;;;;;;;6.28;2.67;;;;;;;;;;5016690;28;20056;-72
2023/08/08 01:03:20;;;;;;;7.50;2.70;;;;;;;;;;5000120;28;20054;-72
2023/08/08 01:05:54;;;;;;;7.25;2.90;;;;;;;;;;5009441;28;20128;-72
2023/08/08 01:08:23;;;;;;;8.60;2.80;;;;;;;;;;5010524;28;20053;-72
2023/08/08 01:10:49;;;;;;;7.03;2.47;;;;;;;;;;5014972;28;20045;-72
2023/08/08 01:13:20;;;;;;;9.45;2.90;;;;;;;;;;5013499;28;20401;-71
2023/08/08 01:15:47;;;;;;;7.22;2.70;;;;;;;;;;4991225;28;20069;-71
2023/08/08 01:18:14;;;;;;;5.35;2.28;;;;;;;;;;5013065;28;20050;-71
2023/08/08 01:20:41;;;;;;;4.85;2.50;;;;;;;;;;4998577;28;20037;-71
2023/08/08 01:23:17;;;;;;;6.45;2.70;;;;;;;;;;5016043;28;20041;-72
2023/08/08 01:25:43;;;;;;;5.65;2.85;;;;;;;;;;5016408;28;20083;-72
2023/08/08 01:28:09;;;;;;;6.68;2.47;;;;;;;;;;5006978;28;20083;-72
2023/08/08 01:30:35;;;;;;;6.50;2.58;;;;;;;;;;5018307;28;20033;-72
2023/08/08 01:33:02;;;;;;;5.00;2.50;;;;;;;;;;5020601;28;20068;-72
2023/08/08 01:35:31;;;;;;;4.80;2.88;;;;;;;;;;5022942;28;20121;-72
2023/08/08 01:38:18;;;;;;;4.60;2.22;;;;;;;;;;5000285;28;20038;-72
2023/08/08 01:40:45;;;;;;;5.20;2.90;;;;;;;;;;4999585;28;20085;-72
2023/08/08 01:43:11;;;;;;;3.90;2.30;;;;;;;;;;4995483;28;20054;-72
2023/08/08 01:45:38;;;;;;;6.90;2.75;;;;;;;;;;5016173;28;20042;-72
2023/08/08 01:48:07;;;;;;;9.68;2.90;;;;;;;;;;5012404;28;20041;-72
2023/08/08 01:50:33;;;;;;;5.78;3.08;;;;;;;;;;5019993;28;20050;-72
2023/08/08 01:52:59;;;;;;;7.03;2.97;;;;;;;;;;5005709;28;20194;-72
2023/08/08 01:55:25;;;;;;;7.13;2.70;;;;;;;;;;5018317;28;20437;-72
2023/08/08 01:57:51;;;;;;;5.95;2.60;;;;;;;;;;5020311;28;20107;-72
2023/08/08 02:00:17;;;;;;;7.70;2.33;;;;;;;;;;4992299;28;20076;-72
2023/08/08 02:02:43;;;;;;;4.93;2.50;;;;;;;;;;5000958;28;20049;-71
2023/08/08 02:05:09;;;;;;;6.93;2.42;;;;;;;;;;5006640;28;20037;-72
2023/08/08 02:07:35;;;;;;;4.95;2.47;;;;;;;;;;5006491;28;20041;-72
2023/08/08 02:10:01;;;;;;;4.97;2.60;;;;;;;;;;5025576;28;20076;-72
2023/08/08 02:12:29;;;;;;;5.90;2.85;;;;;;;;;;4998762;28;20048;-72
2023/08/08 02:14:56;;;;;;;6.32;2.60;;;;;;;;;;5000785;28;20090;-72
2023/08/08 02:17:22;;;;;;;3.85;2.03;;;;;;;;;;4995992;28;20091;-72
2023/08/08 02:19:48;;;;;;;6.95;2.80;;;;;;;;;;5015411;28;20049;-72
2023/08/08 02:22:14;;;;;;;6.85;2.53;;;;;;;;;;5011514;28;20049;-72
2023/08/08 02:24:40;;;;;;;8.48;2.70;;;;;;;;;;5013232;28;20492;-72
2023/08/08 02:27:06;;;;;;;7.38;2.95;;;;;;;;;;5012809;28;20041;-72
2023/08/08 02:29:32;;;;;;;5.22;2.40;;;;;;;;;;5012940;28;20053;-72
2023/08/08 02:31:58;;;;;;;6.13;2.42;;;;;;;;;;5017350;28;20045;-72
2023/08/08 02:34:24;;;;;;;6.18;2.50;;;;;;;;;;5014146;28;20382;-72
2023/08/08 02:36:50;;;;;;;4.78;2.58;;;;;;;;;;5024485;28;20038;-72
2023/08/08 02:39:16;;;;;;;6.60;2.35;;;;;;;;;;5015298;28;20042;-73
2023/08/08 02:41:42;;;;;;;7.40;3.00;;;;;;;;;;5022316;28;20056;-72
2023/08/08 02:44:08;;;;;;;6.93;2.42;;;;;;;;;;4996208;28;20045;-73
2023/08/08 02:46:36;;;;;;;6.82;2.00;;;;;;;;;;5022793;28;20131;-73
2023/08/08 02:49:02;;;;;;;3.72;2.08;;;;;;;;;;5020119;28;20129;-73
2023/08/08 02:51:28;;;;;;;12.98;2.45;;;;;;;;;;5006664;28;20046;-73
2023/08/08 02:53:54;;;;;;;5.68;2.17;;;;;;;;;;4995754;28;20042;-73
2023/08/08 02:56:20;;;;;;;5.22;2.35;;;;;;;;;;4995808;28;20054;-73
2023/08/08 02:58:46;;;;;;;5.30;2.30;;;;;;;;;;5016425;28;20060;-73
2023/08/08 03:01:15;;;;;;;6.40;2.22;;;;;;;;;;5021731;28;20041;-72
2023/08/08 03:03:42;;;;;;;3.40;1.90;;;;;;;;;;5014050;28;20058;-72
2023/08/08 03:06:08;;;;;;;4.57;2.03;;;;;;;;;;5006044;28;20045;-73
2023/08/08 03:08:34;;;;;;;4.60;2.00;;;;;;;;;;5004887;28;20049;-73
2023/08/08 03:11:00;;;;;;;4.50;2.47;;;;;;;;;;5011331;28;20038;-73
2023/08/08 03:13:26;;;;;;;6.03;2.20;;;;;;;;;;5006648;28;20041;-72
2023/08/08 03:15:52;;;;;;;5.20;2.00;;;;;;;;;;5023759;28;20492;-73
2023/08/08 03:18:18;;;;;;;6.03;1.95;;;;;;;;;;5022501;28;20069;-73
2023/08/08 03:20:45;;;;;;;5.90;2.20;;;;;;;;;;4997848;28;20049;-72
2023/08/08 03:23:11;;;;;;;5.55;1.98;;;;;;;;;;4995365;28;20044;-73
2023/08/08 03:25:37;;;;;;;4.40;2.00;;;;;;;;;;5014945;28;20129;-73
2023/08/08 03:28:03;;;;;;;4.53;2.25;;;;;;;;;;5017382;28;20064;-73
2023/08/08 03:30:29;;;;;;;5.75;2.20;;;;;;;;;;5015476;28;20482;-73
2023/08/08 03:32:55;;;;;;;4.80;1.92;;;;;;;;;;5011367;28;20050;-73
2023/08/08 03:35:21;;;;;;;4.45;2.10;;;;;;;;;;5010920;28;20102;-73
2023/08/08 03:37:47;;;;;;;5.45;2.08;;;;;;;;;;4995774;28;20094;-73
2023/08/08 03:40:16;;;;;;;3.70;2.17;;;;;;;;;;5010942;28;20504;-73
2023/08/08 03:42:42;;;;;;;5.75;2.20;;;;;;;;;;4997567;28;20037;-73
2023/08/08 03:45:08;;;;;;;5.35;2.00;;;;;;;;;;5017235;28;20169;-73
2023/08/08 03:47:34;;;;;;;5.63;2.20;;;;;;;;;;4997668;28;20069;-73
2023/08/08 03:50:00;;;;;;;5.53;2.08;;;;;;;;;;5013554;28;20054;-73
2023/08/08 03:52:26;;;;;;;6.93;2.10;;;;;;;;;;5010828;28;20098;-73
2023/08/08 03:54:53;;;;;;;6.78;2.28;;;;;;;;;;5000530;28;20050;-73
2023/08/08 03:57:19;;;;;;;5.20;2.35;;;;;;;;;;5017056;28;20503;-73
2023/08/08 03:59:45;;;;;;;5.55;2.30;;;;;;;;;;5001726;28;20496;-74
2023/08/08 04:02:11;;;;;;;8.15;2.95;;;;;;;;;;4996476;28;20500;-73
2023/08/08 04:04:38;;;;;;;6.53;2.42;;;;;;;;;;4995390;28;20570;-73
2023/08/08 04:07:04;;;;;;;5.32;2.25;;;;;;;;;;5000689;28;20049;-74
2023/08/08 04:09:31;;;;;;;4.65;2.40;;;;;;;;;;5002732;28;20050;-73
2023/08/08 04:11:57;;;;;;;7.00;2.28;;;;;;;;;;4997192;28;20049;-73
2023/08/08 04:14:23;;;;;;;4.60;2.20;;;;;;;;;;5006554;28;20422;-73
2023/08/08 04:16:49;;;;;;;7.57;2.80;;;;;;;;;;5006557;28;20062;-73
2023/08/08 04:19:15;;;;;;;4.95;2.50;;;;;;;;;;4999100;28;20115;-73
2023/08/08 04:21:41;;;;;;;5.50;2.85;;;;;;;;;;4998546;28;20045;-73
2023/08/08 04:24:07;;;;;;;6.97;2.70;;;;;;;;;;4990579;28;20068;-73
2023/08/08 04:26:34;;;;;;;7.68;2.33;;;;;;;;;;5000581;28;20058;-74
2023/08/08 04:29:00;;;;;;;6.72;2.70;;;;;;;;;;5006613;28;20382;-74
2023/08/08 04:31:26;;;;;;;6.78;2.50;;;;;;;;;;4999403;28;20046;-73
2023/08/08 04:33:58;;;;;;;5.13;2.45;;;;;;;;;;5004186;28;20412;-73
2023/08/08 04:36:24;;;;;;;7.85;2.85;;;;;;;;;;4990743;28;20482;-73
2023/08/08 04:38:50;;;;;;;9.27;2.40;;;;;;;;;;4986056;28;20059;-73
2023/08/08 04:41:16;;;;;;;8.13;2.55;;;;;;;;;;4983542;28;20500;-73
2023/08/08 04:43:42;;;;;;;5.68;2.42;;;;;;;;;;4981584;28;20054;-76
2023/08/08 04:46:09;;;;;;;6.60;2.33;;;;;;;;;;4986409;28;20102;-74
2023/08/08 04:48:37;;;;;;;4.40;2.05;;;;;;;;;;4988633;28;20413;-73
2023/08/08 04:51:03;;;;;;;6.00;2.22;;;;;;;;;;4990142;28;20046;-73
2023/08/08 04:53:29;;;;;;;7.10;2.40;;;;;;;;;;4994179;28;20103;-73
2023/08/08 04:55:55;;;;;;;6.93;2.50;;;;;;;;;;5003938;28;20050;-73
2023/08/08 04:58:21;;;;;;;9.32;2.90;;;;;;;;;;5005387;28;20129;-74
2023/08/08 05:00:47;;;;;;;5.72;2.13;;;;;;;;;;5005839;28;20110;-73
2023/08/08 05:03:13;;;;;;;7.30;2.35;;;;;;;;;;4999956;28;20140;-73
2023/08/08 05:05:39;;;;;;;5.30;2.47;;;;;;;;;;4996156;28;20058;-73
2023/08/08 05:08:05;;;;;;;6.47;2.47;;;;;;;;;;5008851;28;20057;-73
2023/08/08 05:10:31;;;;;;;6.45;2.30;;;;;;;;;;5013644;28;20864;-73
2023/08/08 05:12:58;;;;;;;7.00;2.60;;;;;;;;;;5001505;28;20755;-73
2023/08/08 05:15:24;;;;;;;6.53;2.00;;;;;;;;;;5017950;28;20065;-72
2023/08/08 05:17:51;;;;;;;14.20;2.50;;;;;;;;;;5003535;28;20103;-73
2023/08/08 05:20:17;;;;;;;4.22;1.85;;;;;;;;;;5021587;28;20057;-73
2023/08/08 05:22:43;;;;;;;5.85;2.35;;;;;;;;;;4994686;28;20046;-72
2023/08/08 05:25:09;;;;;;;7.22;2.25;;;;;;;;;;5005750;28;20396;-73
2023/08/08 05:27:35;;;;;;;12.00;2.80;;;;;;;;;;5025122;28;20050;-73
2023/08/08 05:30:01;;;;;;;6.03;2.40;;;;;;;;;;5003990;28;20137;-73
2023/08/08 05:32:27;;;;;;;7.38;2.13;;;;;;;;;;5016445;28;20057;-72
2023/08/08 05:34:55;;;;;;;5.95;2.40;;;;;;;;;;5006518;28;20049;-73
2023/08/08 05:37:21;;;;;;;6.88;2.53;;;;;;;;;;5015964;28;20062;-72
2023/08/08 05:39:47;;;;;;;5.25;2.25;;;;;;;;;;4999925;28;20393;-72
2023/08/08 05:42:13;;;;;;;8.27;2.28;;;;;;;;;;5002091;28;20982;-72
2023/08/08 05:44:41;;;;;;;11.07;2.90;;;;;;;;;;5021571;28;20049;-73
2023/08/08 05:47:07;;;;;;;11.80;2.40;;;;;;;;;;5019345;28;20049;-72
2023/08/08 05:49:34;;;;;;;8.63;2.72;;;;;;;;;;5018684;28;20050;-75
2023/08/08 05:52:00;;;;;;;9.02;2.40;;;;;;;;;;4997664;28;20053;-75
2023/08/08 05:54:26;;;;;;;2.60;1.80;;;;;;;;;;5016596;28;20072;-75
2023/08/08 05:56:52;;;;;;;4.38;1.88;;;;;;;;;;5020393;28;20115;-75
2023/08/08 05:59:18;;;;;;;6.28;2.10;;;;;;;;;;5018173;28;20453;-75
2023/08/08 06:01:44;;;;;;;6.68;2.38;;;;;;;;;;5001469;28;20126;-75
2023/08/08 06:04:11;;;;;;;11.23;3.25;;;;;;;;;;5021373;28;20079;-75
2023/08/08 06:06:37;;;;;;;6.97;2.25;;;;;;;;;;5014103;28;20520;-76
2023/08/08 06:09:03;;;;;;;5.05;2.53;;;;;;;;;;5022435;28;20433;-75
2023/08/08 06:11:29;;;;;;;6.95;2.22;;;;;;;;;;5019020;28;20050;-75
2023/08/08 06:13:55;;;;;;;7.43;2.67;;;17.10;99.90;;;;;;4997396;28;20076;-75
2023/08/08 06:16:21;;;;;;;7.28;2.30;;;16.70;99.90;;;;;;5017690;28;20134;-75
2023/08/08 06:18:46;;;;;;;14.00;2.40;;;17.20;99.90;;;;;;5018261;28;20416;-75
2023/08/08 06:21:12;;;;;;;4.90;2.13;;;17.00;99.90;;;;;;5021318;28;20128;-75
2023/08/08 06:23:38;;;;;;;8.10;2.42;;;17.30;99.90;;;;;;5022331;28;20049;-75
2023/08/08 06:26:04;;;;;;;4.47;2.30;;;;;;;;;;5025571;28;20136;-74
2023/08/08 06:28:30;;;;;;;4.63;2.15;;;;;;;;;;5017809;28;20048;-75
2023/08/08 06:30:57;;;;;;;6.70;2.50;;;17.50;99.90;;;;;;5024871;28;20045;-75
2023/08/08 06:33:23;;;;;;;8.77;2.30;;;17.20;99.90;;;;;;5002970;28;20053;-75
2023/08/08 06:35:49;;;;;;;4.70;2.03;;;17.40;99.90;;;;;;4997874;28;20504;-75
2023/08/08 06:38:15;;;;;;;10.10;2.30;;;17.40;99.90;;;;;;5010567;28;20471;-75
2023/08/08 06:40:40;;;;;;;7.35;2.40;;;17.30;99.90;;;;;;5018292;28;20049;-75
2023/08/08 06:43:06;;;;;;;8.27;2.20;;;17.30;99.90;;;;;;5016597;28;20389;-75
2023/08/08 06:45:32;;;;;;;5.32;2.60;;;17.30;99.90;;;;;;5002361;28;20053;-75
2023/08/08 06:47:57;;;;;;;7.40;2.78;;;17.30;99.90;;;;;;5024188;28;20042;-75
2023/08/08 06:50:24;;;;;;;8.13;2.72;;;17.30;99.90;;;;;;5005683;28;20499;-75
2023/08/08 06:52:50;;;;;;;5.10;2.08;;;17.30;99.90;;;;;;5022210;28;20049;-74
2023/08/08 06:55:16;;;;;;;7.97;2.28;;;17.20;99.90;;;;;;5018061;28;20049;-73
2023/08/08 06:57:42;;;;;;;11.80;2.33;;;17.20;99.90;;;;;;5000901;28;20045;-74
2023/08/08 07:00:11;;;;;;;6.43;2.03;;;17.60;99.90;;;;;;5018927;28;20034;-72
2023/08/08 07:02:37;;;;;;;5.10;2.15;;;17.30;99.90;;;;;;5018880;28;20071;-73
2023/08/08 07:05:03;;;;;;;5.95;2.28;;;17.50;99.90;;;;;;5016891;28;20057;-73
2023/08/08 07:07:30;;;;;;;6.90;2.67;;;17.50;99.90;;;;;;4998171;28;20049;-74
2023/08/08 07:09:56;;;;;;;7.90;2.22;;;17.40;99.90;;;;;;5083497;28;20127;-74
2023/08/08 07:12:22;;;;;;;9.57;2.55;;;17.50;99.90;;;;;;5016150;28;20487;-74
2023/08/08 07:14:48;;;;;;;6.75;2.40;;;17.50;99.90;;;;;;4992211;28;20034;-75
2023/08/08 07:17:14;;;;;;;9.27;2.67;;;17.90;99.90;;;;;;5013508;27;20430;-75
2023/08/08 07:19:41;;;;;;;12.35;2.88;;;17.50;99.90;;;;;;4999299;28;20047;-76
2023/08/08 07:22:07;;;;;;;6.47;2.35;;;17.40;99.90;;;;;;5016766;28;20049;-75
2023/08/08 07:24:32;;;;;;;5.13;2.22;;;17.40;99.90;;;;;;5019371;28;20049;-74
2023/08/08 07:26:59;;;;;;;8.02;2.33;;;;;;;;;;5016205;28;20137;-73
2023/08/08 07:29:25;;;;;;;11.75;2.60;;;;;;;;;;5000805;28;20045;-75
2023/08/08 07:31:54;;;;;;;12.50;2.67;;;;;;;;;;4994316;28;20049;-75
2023/08/08 07:34:20;;;;;;;8.98;2.25;;;;;;;;;;4997857;28;20070;-75
2023/08/08 07:36:47;;;;;;;4.05;2.35;;;;;;;;;;5015316;28;20045;-74
2023/08/08 07:39:13;;;;;;;7.30;2.45;;;;;;;;;;5013234;28;20050;-75
2023/08/08 07:41:39;;;;;;;7.90;2.20;;;;;;;;;;5007348;28;20111;-76
2023/08/08 07:44:06;;;;;;;6.30;2.30;;;;;;;;;;5010053;28;20493;-76
2023/08/08 07:46:32;;;;;;;4.45;2.00;;;;;;;;;;5025806;28;20181;-76
2023/08/08 07:49:02;;;;;;;7.40;2.45;;;;;;;;;;5018718;28;20049;-76
2023/08/08 07:51:28;;;;;;;8.50;2.83;;;;;;;;;;5019218;28;20042;-75
2023/08/08 07:53:54;;;;;;;9.25;2.58;;;;;;;;;;5024664;28;20053;-76
2023/08/08 07:56:20;;;;;;;6.15;2.35;;;;;;;;;;5030490;28;20078;-76
2023/08/08 07:58:46;;;;;;;7.75;2.50;;;;;;;;;;4994436;28;20053;-76
2023/08/08 08:01:13;;;;;;;10.10;2.45;;;;;;;;;;5012176;28;20045;-76
2023/08/08 08:03:39;;;;;;;8.35;2.38;;;;;;;;;;5020500;28;20065;-76
2023/08/08 08:06:05;;;;;;;7.72;2.40;;;;;;;;;;5003685;28;20114;-77
2023/08/08 08:08:33;;;;;;;7.88;2.47;;;;;;;;;;4996554;28;20492;-76
2023/08/08 08:10:59;;;;;;;3.53;2.00;;;;;;;;;;5029242;28;20377;-76
2023/08/08 08:13:25;;;;;;;5.10;2.03;;;;;;;;;;5020813;28;20160;-76
2023/08/08 08:15:52;;;;;;;6.07;2.30;;;;;;;;;;5016615;28;20046;-75
2023/08/08 08:18:19;;;;;;;6.53;2.17;;;;;;;;;;5014906;28;20055;-76
2023/08/08 08:20:46;;;;;;;7.78;2.20;;;;;;;;;;5011885;28;20044;-76
2023/08/08 08:23:12;;;;;;;5.03;1.95;;;;;;;;;;5011403;28;20541;-76
2023/08/08 08:25:38;;;;;;;5.53;2.30;;;;;;;;;;5009684;28;20042;-76
2023/08/08 08:28:04;;;;;;;6.38;2.47;;;;;;;;;;4999562;28;20042;-76
2023/08/08 08:30:30;;;;;;;10.77;2.78;;;;;;;;;;4999744;28;20476;-76
2023/08/08 08:33:00;;;;;;;7.75;2.42;;;;;;;;;;5015939;28;20034;-75
2023/08/08 08:35:26;;;;;;;7.70;2.83;;;;;;;;;;4995756;28;20050;-76
2023/08/08 08:37:52;;;;;;;5.72;2.05;;;;;;;;;;5009689;28;20049;-76
2023/08/08 08:40:18;;;;;;;7.85;2.42;;;;;;;;;;4997853;28;20081;-72
2023/08/08 08:42:45;;;;;;;9.68;2.58;;;;;;;;;;5013755;28;20124;-76
2023/08/08 08:45:11;;;;;;;7.97;2.28;;;;;;;;;;5028420;28;20485;-76
2023/08/08 08:47:38;;;;;;;6.97;2.47;;;;;;;;;;5008409;28;20412;-76
2023/08/08 08:50:04;;;;;;;7.22;2.70;;;;;;;;;;4990642;28;20409;-76
2023/08/08 08:52:30;;;;;;;8.52;3.03;;;;;;;;;;5021751;28;20060;-75
2023/08/08 08:54:57;;;;;;;5.90;2.90;;;;;;;;;;5007166;28;20046;-76
2023/08/08 08:57:23;;;;;;;8.93;2.88;;;;;;;;;;5024811;28;20045;-76
2023/08/08 08:59:50;;;;;;;5.28;2.20;;;;;;;;;;5008501;28;20056;-76
2023/08/08 09:02:17;;;;;;;7.32;1.90;;;;;;;;;;5005675;28;20211;-76
2023/08/08 09:04:43;;;;;;;6.25;2.30;;;;;;;;;;4995169;28;20059;-76
2023/08/08 09:07:10;;;;;;;5.85;2.78;;;;;;;;;;5003100;28;20077;-76
2023/08/08 09:09:37;;;;;;;5.22;2.10;;;;;;;;;;4987831;28;20125;-76
2023/08/08 09:12:05;;;;;;;10.07;2.60;;;;;;;;;;5000530;28;20046;-76
2023/08/08 09:14:31;;;;;;;11.95;2.60;;;;;;;;;;5003495;28;20073;-76
2023/08/08 09:16:57;;;;;;;9.85;2.70;;;;;;;;;;5006444;28;20502;-76
2023/08/08 09:19:23;;;;;;;5.93;2.58;;;;;;;;;;5026670;28;20375;-76
2023/08/08 09:21:50;;;;;;;6.40;2.55;;;;;;;;;;4993805;28;20062;-76
2023/08/08 09:24:17;;;;;;;10.02;2.63;;;;;;;;;;4993227;28;20503;-76
2023/08/08 09:26:43;;;;;;;7.57;3.20;;;;;;;;;;4995157;28;20045;-76
2023/08/08 09:29:10;;;;;;;5.13;2.30;;;;;;;;;;4994290;28;20050;-76
2023/08/08 09:31:36;;;;;;;8.88;2.40;;;;;;;;;;4992900;28;20073;-76
2023/08/08 09:34:03;;;;;;;7.40;2.42;;;18.30;99.90;;;;;;5005234;28;20133;-76
2023/08/08 09:36:29;;;;;;;8.45;2.47;;;18.20;99.90;;;;;;4997379;28;20046;-76
2023/08/08 09:38:55;;;;;;;5.82;2.55;;;;;;;;;;5015757;28;20053;-76
2023/08/08 09:41:22;;;;;;;5.32;2.30;;;;;;;;;;5005171;28;20054;-76
2023/08/08 09:43:49;;;;;;;3.65;2.40;;;;;;;;;;5000258;28;20507;-76
2023/08/08 09:46:15;;;;;;;6.53;2.33;;;;;;;;;;5019270;28;20440;-76
2023/08/08 09:48:42;;;;;;;5.82;2.70;;;;;;;;;;4995510;28;20137;-76
2023/08/08 09:51:08;;;;;;;9.63;2.83;;;;;;;;;;4990434;28;20508;-76
2023/08/08 09:53:35;;;;;;;8.05;2.50;;;;;;;;;;5009970;28;20447;-76
2023/08/08 09:56:04;;;;;;;8.00;2.80;;;;;;;;;;5012389;28;20560;-76
2023/08/08 09:58:30;;;;;;;6.88;2.28;;;;;;;;;;4991910;28;20483;-76
2023/08/08 10:00:57;;;;;;;11.65;2.80;;;;;;;;;;4990120;28;20576;-76
2023/08/08 10:03:23;;;;;;;6.38;3.00;;;;;;;;;;4999065;28;20050;-76
2023/08/08 10:05:49;;;;;;;9.60;2.63;;;;;;;;;;5024562;28;20088;-76
2023/08/08 10:08:16;;;;;;;8.00;3.05;;;;;;;;;;5026538;28;20048;-75
2023/08/08 10:10:44;;;;;;;8.43;2.40;;;;;;;;;;5015130;28;20038;-76
2023/08/08 10:13:10;;;;;;;7.38;2.38;;;;;;;;;;5025109;28;20038;-75
2023/08/08 10:15:40;;;;;;;6.90;2.40;;;;;;;;;;5001083;28;20397;-74
2023/08/08 10:18:06;;;;;;;10.20;3.08;;;;;;;;;;5003558;28;20041;-74
2023/08/08 10:20:35;;;;;;;6.60;2.15;;;;;;;;;;5017857;28;20048;-73
2023/08/08 10:23:02;;;;;;;7.18;2.47;;;;;;;;;;5012225;28;20072;-73
2023/08/08 10:25:30;;;;;;;7.68;2.40;;;;;;;;;;5021630;28;20049;-73
2023/08/08 10:28:04;;;;;;;9.23;2.60;;;;;;;;;;5006808;28;20120;-73
2023/08/08 10:30:30;;;;;;;6.72;2.45;;;;;;;;;;4995850;28;21449;-73
2023/08/08 10:32:59;;;;;;;7.10;2.08;;;;;;;;;;5014871;28;20048;-73
2023/08/08 10:35:35;;;;;;;6.35;2.17;;;;;;;;;;4992576;28;20050;-73
2023/08/08 10:38:01;;;;;;;5.30;2.20;;;;;;;;;;5015676;28;20042;-73
2023/08/08 10:40:33;;;;;;;7.75;2.60;;;;;;;;;;4994767;28;20073;-73
2023/08/08 10:42:59;;;;;;;3.72;2.00;;;;;;;;;;5000208;28;20140;-73
2023/08/08 10:45:30;;;;;;;3.95;1.90;;;;;;;;;;5007698;28;20121;-73
2023/08/08 10:47:56;;;;;;;7.32;2.25;;;;;;;;;;5009629;28;20107;-73
2023/08/08 10:50:23;;;;;;;5.93;2.47;;;;;;;;;;5009077;28;20358;-73
2023/08/08 10:52:52;;;;;;;7.50;2.15;;;;;;;;;;5024221;28;20129;-73
2023/08/08 10:55:31;;;;;;;4.32;1.98;;;;;;;;;;5012386;28;20435;-72
2023/08/08 10:58:05;;;;;;;10.25;2.42;;;;;;;;;;5003332;28;20392;-73
2023/08/08 11:00:32;;;;;;;9.93;2.40;;;;;;;;;;5004870;28;20126;-73
2023/08/08 11:02:59;;;;;;;6.38;2.22;;;;;;;;;;5011549;28;20054;-73
2023/08/08 11:05:26;;;;;;;4.57;2.60;;;;;;;;;;5008285;28;21337;-73
2023/08/08 11:07:52;;;;;;;5.63;2.28;;;;;;;;;;5024425;28;20053;-73
2023/08/08 11:10:19;;;;;;;7.88;2.58;;;;;;;;;;5004756;28;20048;-73
2023/08/08 11:13:05;;;;;;;8.50;2.60;;;;;;;;;;5017591;28;20472;-73
2023/08/08 11:15:32;;;;;;;12.45;3.10;;;;;;;;;;5012324;28;20037;-74
2023/08/08 11:17:59;;;;;;;5.70;2.50;;;;;;;;;;4999544;28;20050;-73
2023/08/08 11:20:25;;;;;;;7.32;2.28;;;;;;;;;;5011452;28;20054;-73
2023/08/08 11:22:52;;;;;;;4.93;2.30;;;;;;;;;;5001631;28;20041;-73
2023/08/08 11:25:18;;;;;;;6.47;2.30;;;;;;;;;;5005399;28;20048;-73
2023/08/08 11:27:54;;;;;;;8.13;2.70;;;;;;;;;;5001907;28;20099;-73
2023/08/08 11:30:20;;;;;;;6.35;2.22;;;;;;;;;;4992105;28;20046;-73
2023/08/08 11:32:47;;;;;;;5.55;2.70;;;;;;;;;;5014245;28;20126;-73
2023/08/08 11:35:16;;;;;;;9.50;2.65;;;;;;;;;;5004392;28;20506;-73
2023/08/08 11:37:43;;;;;;;3.80;2.28;;;;;;;;;;5020477;28;20034;-73
2023/08/08 11:40:09;;;;;;;6.97;2.40;;;;;;;;;;5011205;28;20045;-73
2023/08/08 11:42:35;;;;;;;5.28;2.30;;;;;;;;;;5023128;28;20432;-73
2023/08/08 11:45:01;;;;;;;10.10;2.80;;;19.70;99.90;;;;;;5021435;28;20526;-73
2023/08/08 11:47:31;;;;;;;6.55;2.30;;;19.40;99.90;;;;;;5012007;28;20116;-73
2023/08/08 11:49:57;;;;;;;6.30;2.67;;;19.40;99.90;;;;;;4991597;28;20125;-73
2023/08/08 11:52:24;;;;;;;9.80;2.25;;;19.50;99.90;;;;;;5011634;28;20136;-73
2023/08/08 11:54:52;;;;;;;7.30;2.30;;;19.50;99.90;;;;;;4993570;28;20042;-73
2023/08/08 11:57:18;;;;;;;9.68;2.80;;;;;;;;;;5002389;28;20124;-73
2023/08/08 11:59:44;;;;;;;6.40;2.28;;;19.50;99.90;;;;;;5020148;28;20037;-73
2023/08/08 12:02:10;;;;;;;4.07;2.17;;;19.60;99.90;;;;;;5028289;28;20385;-73
2023/08/08 12:04:36;;;;;;;4.95;2.20;;;19.60;99.90;;;;;;5009140;28;20050;-73
2023/08/08 12:07:03;;;;;;;6.43;2.35;;;19.60;99.90;;;;;;5028383;28;20049;-73
2023/08/08 12:09:32;;;;;;;8.85;2.30;;;19.80;99.90;;;;;;5005590;28;20105;-73
2023/08/08 12:12:00;;;;;;;8.70;2.88;;;19.60;99.90;;;;;;5009169;28;20358;-73
2023/08/08 12:14:25;;;;;;;6.80;2.45;;;19.60;99.90;;;;;;5050122;28;20037;-73
2023/08/08 12:16:51;;;;;;;6.90;2.60;;;;;;;;;;5082132;28;20555;-73
2023/08/08 12:19:21;;;;;;;4.63;2.17;;;;;;;;;;5022478;28;20050;-74
2023/08/08 12:21:46;;;;;;;9.27;2.47;;;19.80;99.90;;;;;;5008705;28;20540;-73
2023/08/08 12:24:12;;;;;;;11.30;2.70;;;19.60;99.90;;;;;;4992164;28;20120;-73
2023/08/08 12:26:38;;;;;;;5.03;2.50;;;19.90;99.90;;;;;;5012005;28;20061;-74
2023/08/08 12:29:03;;;;;;;6.05;2.50;;;19.80;99.90;;;;;;5016456;28;20094;-73
2023/08/08 12:31:29;;;;;;;7.43;2.33;;;19.90;99.90;;;;;;5011080;28;20132;-73
2023/08/08 12:33:55;;;;;;;5.78;2.13;;;20.00;99.90;;;;;;5009374;28;20038;-73
2023/08/08 12:36:20;;;;;;;8.80;2.88;;;20.00;99.90;;;;;;5021634;28;20045;-73
2023/08/08 12:38:46;;;;;;;6.97;2.70;;;20.20;99.90;;;;;;5031230;28;20044;-73
2023/08/08 12:41:12;;;;;;;6.40;2.13;;;;;;;;;;5029785;28;20042;-73
2023/08/08 12:43:38;;;;;;;7.38;2.63;;;20.90;99.90;;;;;;5022339;28;20390;-73
2023/08/08 12:46:04;;;;;;;10.85;2.30;;;20.40;99.90;;;;;;5013876;28;20056;-73
2023/08/08 12:48:30;;;;;;;8.13;2.55;;;20.30;99.90;;;;;;5009079;28;20042;-73
2023/08/08 12:50:55;;;;;;;5.28;2.20;;;20.10;99.90;;;;;;5009694;28;20493;-74
2023/08/08 12:53:21;;;;;;;8.70;2.65;;;20.10;99.90;;;;;;5009055;28;20135;-73
2023/08/08 12:55:46;;;;;;;5.65;2.42;;;20.10;99.90;;;;;;5059328;28;20469;-73
2023/08/08 12:58:12;;;;;;;9.45;2.78;;;20.30;99.90;;;;;;4999282;28;20053;-73
2023/08/08 13:00:38;;;;;;;9.77;3.42;;;20.50;99.90;;;;;;5005011;28;20052;-73
2023/08/08 13:03:04;;;;;;;8.10;2.42;;;20.30;99.90;;;;;;5019016;28;20065;-73
2023/08/08 13:05:29;;;;;;;11.38;3.53;;;20.40;99.90;;;;;;5036689;28;20048;-73
2023/08/08 13:07:55;;;;;;;7.57;2.47;;;20.60;99.90;;;;;;5029843;28;20033;-73
2023/08/08 13:10:21;;;;;;;8.38;2.67;;;20.40;99.90;;;;;;4997365;28;20485;-74
2023/08/08 13:12:47;;;;;;;6.88;2.45;;;20.50;99.90;;;;;;5023877;28;20041;-74
2023/08/08 13:15:13;;;;;;;8.00;2.42;;;20.40;99.90;;;;;;5000017;28;20042;-70
2023/08/08 13:17:39;;;;;;;4.15;2.13;;;20.30;99.90;;;;;;5003965;28;20041;-71
2023/08/08 13:20:07;;;;;;;8.15;2.80;;;20.30;99.90;;;;;;5026520;28;20060;-71
2023/08/08 13:22:33;;;;;;;4.57;1.90;;;20.30;99.90;;;;;;5014739;28;20045;-72
2023/08/08 13:24:59;;;;;;;6.30;2.50;;;20.30;99.90;;;;;;5027693;28;20034;-71
2023/08/08 13:27:27;;;;;;;7.88;2.20;;;20.20;99.90;;;;;;5015854;28;20504;-72
2023/08/08 13:29:53;;;;;;;6.78;2.38;;;;;;;;;;5016687;28;20037;-71
2023/08/08 13:32:19;;;;;;;6.43;2.10;;;;;;;;;;5012363;28;20120;-71
2023/08/08 13:34:45;;;;;;;9.35;2.72;;;;;;;;;;5015714;28;20059;-71
2023/08/08 13:37:11;;;;;;;4.53;1.75;;;;;;;;;;5029721;28;20499;-70
2023/08/08 13:39:37;;;;;;;5.40;2.10;;;;;;;;;;5019520;28;20042;-71
2023/08/08 13:42:03;;;;;;;4.90;2.25;;;;;;;;;;5009640;28;20164;-71
2023/08/08 13:44:30;;;;;;;4.85;2.10;;;;;;;;;;5011412;28;20085;-72
2023/08/08 13:46:57;;;;;;;6.53;2.20;;;;;;;;;;5021570;28;20050;-72
2023/08/08 13:49:26;;;;;;;5.00;2.20;;;;;;;;;;5003472;28;20137;-72
2023/08/08 13:51:52;;;;;;;7.05;2.47;;;20.40;99.90;;;;;;5008556;28;20058;-72
2023/08/08 13:54:18;;;;;;;4.60;2.00;;;;;;;;;;5014470;28;20387;-72
2023/08/08 13:56:44;;;;;;;4.38;2.25;;;;;;;;;;5024140;28;20102;-72
2023/08/08 13:59:11;;;;;;;7.35;2.60;;;;;;;;;;5016965;28;20042;-72
2023/08/08 14:01:37;;;;;;;4.68;1.80;;;;;;;;;;5017935;28;20106;-72
2023/08/08 14:04:04;;;;;;;8.02;2.30;;;;;;;;;;5016659;28;20130;-73
2023/08/08 14:06:30;;;;;;;5.47;2.17;;;;;;;;;;5007758;28;20077;-72
2023/08/08 14:08:56;;;;;;;7.68;2.50;;;;;;;;;;5009751;28;20085;-72
2023/08/08 14:11:23;;;;;;;3.72;1.90;;;;;;;;;;4996402;28;20099;-72
2023/08/08 14:13:49;;;;;;;6.22;2.13;;;;;;;;;;4999695;28;20049;-72